Time;durP1;ratioP1;P1;durP2;ratioP2;P2;SDS_P1;SDS_P2;PMS_P1;PMS_P2;Temp;Humidity;BMP_temperature;BMP_pressure;BME280_temperature;BME280_humidity;BME280_pressure;Samples;Min_cycle;Max_cycle;Signal;HPM_P1;HPM_P2
2022/03/01 00:01:20;;;;;;;85.57;35.55;;;;;;;-2.10;67.38;102347.72;5054531;28;20025;-74
2022/03/01 00:03:47;;;;;;;71.47;33.50;;;;;;;-2.12;66.77;102352.81;5054370;28;20071;-74
2022/03/01 00:06:13;;;;;;;92.78;39.22;;;;;;;-2.13;67.19;102351.22;5054299;28;20036;-74
2022/03/01 00:08:38;;;;;;;98.32;39.53;;;;;;;-2.14;67.37;102349.56;5055305;28;20274;-75
2022/03/01 00:11:03;;;;;;;103.68;43.55;;;;;;;-2.19;67.71;102347.81;5055296;28;20055;-74
2022/03/01 00:13:30;;;;;;;102.90;43.72;;;;;;;-2.21;67.46;102347.31;5037838;28;20158;-74
2022/03/01 00:15:56;;;;;;;92.80;42.63;;;;;;;-2.23;67.34;102346.03;5038070;28;20029;-75
2022/03/01 00:18:22;;;;;;;91.25;39.53;;;;;;;-2.24;67.56;102348.00;5054931;28;20034;-74
2022/03/01 00:20:48;;;;;;;85.47;37.08;;;;;;;-2.23;68.18;102346.03;5055700;28;20112;-75
2022/03/01 00:23:14;;;;;;;93.05;38.05;;;;;;;-2.13;67.72;102344.81;5055413;28;20052;-74
2022/03/01 00:25:39;;;;;;;106.43;41.42;;;;;;;-2.13;67.97;102342.00;5059020;28;20115;-75
2022/03/01 00:28:04;;;;;;;99.30;43.33;;;;;;;-2.16;67.19;102329.53;5074637;28;20040;-74
2022/03/01 00:30:31;;;;;;;121.53;42.85;;;;;;;-2.09;67.03;102332.59;5059063;28;20017;-74
2022/03/01 00:32:57;;;;;;;117.80;49.63;;;;;;;-2.10;67.61;102339.34;5058646;28;20472;-74
2022/03/01 00:35:23;;;;;;;112.88;46.03;;;;;;;-2.06;67.58;102353.44;5059270;28;20024;-74
2022/03/01 00:37:50;;;;;;;112.82;44.17;;;;;;;-2.08;67.65;102348.22;5059061;28;20035;-74
2022/03/01 00:40:17;;;;;;;124.00;50.88;;;;;;;-2.24;67.79;102322.09;5058270;28;20064;-73
2022/03/01 00:42:43;;;;;;;111.20;44.05;;;;;;;-2.07;67.78;102344.22;5076613;28;20030;-74
2022/03/01 00:45:09;;;;;;;98.40;41.83;;;;;;;-2.09;67.75;102338.19;5076042;28;20503;-75
2022/03/01 00:47:35;;;;;;;100.97;40.83;;;;;;;-2.04;67.50;102334.38;5042016;28;20043;-74
2022/03/01 00:50:02;;;;;;;124.70;52.78;;;;;;;-2.05;67.84;102338.31;5038319;28;20494;-74
2022/03/01 00:52:29;;;;;;;143.48;60.15;;;;;;;-2.06;67.84;102351.44;5056319;28;20028;-74
2022/03/01 00:54:55;;;;;;;134.70;54.50;;;;;;;-2.09;67.71;102346.56;5056659;28;20035;-74
2022/03/01 00:57:21;;;;;;;123.28;51.78;;;;;;;-2.10;68.08;102346.91;5038642;28;20025;-75
2022/03/01 00:59:47;;;;;;;100.32;44.55;;;;;;;-2.12;68.18;102352.81;5041029;28;20052;-74
2022/03/01 01:02:15;;;;;;;91.18;41.60;;;;;;;-2.12;68.22;102355.59;5039093;28;20029;-75
2022/03/01 01:04:41;;;;;;;112.03;46.25;;;;;;;-2.12;67.96;102352.81;5055196;28;20041;-74
2022/03/01 01:07:07;;;;;;;100.93;44.35;;;;;;;-2.11;68.06;102348.06;5038279;28;20542;-73
2022/03/01 01:09:33;;;;;;;100.75;42.97;;;;;;;-2.14;68.66;102354.34;5054108;28;20028;-74
2022/03/01 01:12:04;;;;;;;99.65;44.50;;;;;;;-2.19;68.50;102360.94;5055927;28;20032;-75
2022/03/01 01:14:30;;;;;;;94.27;41.47;;;;;;;-2.19;68.07;102358.97;5021956;28;20047;-75
2022/03/01 01:16:57;;;;;;;126.65;53.80;;;;;;;-2.21;68.25;102349.28;5056443;28;20029;-76
2022/03/01 01:19:22;;;;;;;93.75;40.88;;;;;;;-2.21;68.62;102360.44;5037291;28;20033;-74
2022/03/01 01:24:32;;;;;;;84.80;39.28;;;;;;;-2.21;68.09;102371.63;5054986;28;20430;-74
2022/03/01 01:26:57;;;;;;;86.18;38.35;;;;;;;-2.22;68.53;102370.00;5037962;28;20029;-74
2022/03/01 01:29:23;;;;;;;85.38;38.75;;;;;;;-2.27;68.82;102378.59;5054006;28;20037;-74
2022/03/01 01:31:51;;;;;;;83.80;35.58;;;;;;;-2.34;68.88;102378.31;5037512;28;20535;-76
2022/03/01 01:34:17;;;;;;;83.10;36.40;;;;;;;-2.35;69.33;102379.44;5056231;28;20029;-74
2022/03/01 01:36:44;;;;;;;74.38;33.33;;;;;;;-2.36;69.13;102383.38;5036980;28;20025;-73
2022/03/01 01:39:10;;;;;;;65.97;31.50;;;;;;;-2.36;68.65;102378.63;5053718;28;20390;-74
2022/03/01 01:41:38;;;;;;;78.22;33.95;;;;;;;-2.37;68.88;102373.41;5053956;28;20029;-74
2022/03/01 01:44:05;;;;;;;79.95;34.42;;;;;;;-2.35;69.15;102388.63;5051764;28;20078;-75
2022/03/01 01:46:53;;;;;;;71.00;34.58;;;;;;;-2.33;69.11;102383.53;5036515;28;20055;-74
2022/03/01 01:49:18;;;;;;;74.10;34.08;;;;;;;-2.35;69.20;102387.81;5036792;28;20103;-75
2022/03/01 01:51:46;;;;;;;82.07;38.20;;;;;;;-2.38;69.47;102383.75;5073873;28;20491;-74
2022/03/01 01:54:13;;;;;;;62.78;31.40;;;;;;;-2.42;69.52;102373.63;5073858;28;20028;-74
2022/03/01 01:56:40;;;;;;;76.32;30.75;;;;;;;-2.45;69.59;102379.84;5038865;28;20036;-73
2022/03/01 01:59:15;;;;;;;65.00;31.80;;;;;;;-2.43;69.82;102377.56;5056188;28;20378;-74
2022/03/01 02:01:41;;;;;;;68.20;32.47;;;;;;;-2.45;70.06;102386.25;5055863;28;20032;-73
2022/03/01 02:04:07;;;;;;;79.60;33.67;;;;;;;-2.45;69.87;102383.47;5074245;28;20059;-73
2022/03/01 02:06:39;;;;;;;66.50;32.53;;;;;;;-2.45;69.82;102383.47;5056137;28;20040;-74
2022/03/01 02:09:06;;;;;;;66.07;30.20;;;;;;;-2.43;69.95;102380.34;5040148;28;20025;-75
2022/03/01 02:11:34;;;;;;;75.75;32.88;;;;;;;-2.45;69.90;102377.88;5056973;28;20063;-74
2022/03/01 02:14:00;;;;;;;70.35;33.25;;;;;;;-2.46;69.76;102384.63;5056824;28;20103;-73
2022/03/01 02:16:29;;;;;;;70.53;32.03;;;;;;;-2.47;70.26;102377.44;5039710;28;20137;-74
2022/03/01 02:18:56;;;;;;;72.53;30.48;;;;;;;-2.48;70.43;102377.75;5074385;28;20447;-75
2022/03/01 02:21:23;;;;;;;69.78;30.23;;;;;;;-2.49;70.70;102370.53;5039945;28;20108;-74
2022/03/01 02:23:49;;;;;;;67.95;32.92;;;;;;;-2.52;70.88;102365.66;5054391;28;20040;-74
2022/03/01 02:26:15;;;;;;;69.28;31.77;;;;;;;-2.52;70.49;102369.25;5039812;28;20362;-74
2022/03/01 02:28:42;;;;;;;67.93;33.08;;;;;;;-2.56;70.81;102368.28;5074245;28;20040;-74
2022/03/01 02:31:08;;;;;;;72.60;32.55;;;;;;;-2.56;70.51;102371.06;5056131;28;20031;-74
2022/03/01 02:33:35;;;;;;;72.82;31.83;;;;;;;-2.58;71.17;102361.41;5056061;28;20025;-74
2022/03/01 02:36:01;;;;;;;67.22;31.25;;;;;;;-2.61;71.40;102366.50;5039476;28;20074;-74
2022/03/01 02:38:27;;;;;;;63.42;31.25;;;;;;;-2.66;71.96;102374.25;5074007;28;20063;-74
2022/03/01 02:40:53;;;;;;;82.93;33.97;;;;;;;-2.74;71.64;102361.19;5055743;28;20052;-74
2022/03/01 02:43:19;;;;;;;68.13;31.35;;;;;;;-2.80;71.78;102360.56;5073924;28;20028;-74
2022/03/01 02:45:45;;;;;;;69.65;32.40;;;;;;;-2.78;72.16;102371.41;5073916;28;20075;-74
2022/03/01 02:48:11;;;;;;;74.07;31.42;;;;;;;-2.86;72.34;102366.69;5073458;28;20142;-75
2022/03/01 02:50:38;;;;;;;66.65;30.55;;;;;;;-2.84;72.28;102362.41;5073594;28;20045;-74
2022/03/01 02:53:04;;;;;;;80.18;33.88;;;;;;;-2.77;71.58;102359.09;5073713;28;20028;-75
2022/03/01 02:55:30;;;;;;;71.70;33.78;;;;;;;-2.71;71.76;102363.28;5055625;28;20065;-74
2022/03/01 02:57:56;;;;;;;80.63;34.08;;;;;;;-2.74;71.99;102364.81;5039165;28;20115;-74
2022/03/01 03:00:23;;;;;;;71.43;34.30;;;;;;;-2.72;72.05;102367.25;5073900;28;20033;-75
2022/03/01 03:02:49;;;;;;;75.45;35.30;;;;;;;-2.71;72.55;102366.09;5073798;28;20021;-74
2022/03/01 03:05:16;;;;;;;66.07;32.20;;;;;;;-2.72;72.64;102372.84;5073961;28;20090;-74
2022/03/01 03:07:46;;;;;;;61.45;30.42;;;;;;;-2.75;72.69;102367.91;5040019;28;20077;-73
2022/03/01 03:10:12;;;;;;;63.90;30.80;;;;;;;-2.82;72.46;102350.94;5069584;28;20036;-73
2022/03/01 03:12:38;;;;;;;62.40;32.63;;;;;;;-2.73;72.87;102358.06;5056851;28;20139;-73
2022/03/01 03:15:06;;;;;;;63.30;30.02;;;;;;;-2.80;72.44;102356.97;5073418;28;20024;-75
2022/03/01 03:17:32;;;;;;;63.50;30.33;;;;;;;-2.83;73.05;102364.03;5055663;28;20039;-74
2022/03/01 03:19:59;;;;;;;73.78;30.95;;;;;;;-2.98;73.74;102345.13;5038581;28;20025;-74
2022/03/01 03:22:25;;;;;;;64.80;30.02;;;;;;;-2.90;73.55;102363.75;5038651;28;20029;-74
2022/03/01 03:24:53;;;;;;;59.00;28.40;;;;;;;-2.93;73.36;102356.06;5055642;28;20025;-73
2022/03/01 03:27:18;;;;;;;62.00;30.75;;;;;;;-2.92;73.70;102354.09;5073437;28;20032;-75
2022/03/01 03:29:44;;;;;;;62.15;30.25;;;;;;;-2.94;73.75;102356.41;5055292;28;20020;-73
2022/03/01 03:32:10;;;;;;;54.97;28.80;;;;;;;-2.98;73.64;102353.47;5055507;28;20153;-74
2022/03/01 03:34:36;;;;;;;65.75;31.35;;;;;;;-3.02;74.03;102351.69;5073168;28;20056;-74
2022/03/01 03:37:02;;;;;;;109.38;35.17;;;;;;;-3.00;73.60;102357.72;5038307;28;20025;-74
2022/03/01 03:39:29;;;;;;;88.00;33.80;;;;;;;-2.94;72.78;102351.66;5038335;28;20024;-73
2022/03/01 03:41:56;;;;;;;64.32;29.30;;;;;;;-2.92;73.03;102354.91;5039104;28;20120;-75
2022/03/01 03:44:22;;;;;;;67.63;30.58;;;;;;;-2.93;73.63;102346.88;5055250;28;20029;-74
2022/03/01 03:46:48;;;;;;;64.43;28.20;;;;;;;-2.95;73.88;102357.53;5054825;28;20046;-74
2022/03/01 03:49:16;;;;;;;66.90;32.08;;;;;;;-2.99;73.62;102349.03;5037912;28;20024;-74
2022/03/01 03:51:42;;;;;;;65.75;32.85;;;;;;;-2.90;73.35;102354.56;5055125;28;20112;-76
2022/03/01 03:54:09;;;;;;;76.45;33.88;;;;;;;-2.84;72.89;102353.22;5055142;28;20470;-74
2022/03/01 03:56:36;;;;;;;72.50;35.47;;;;;;;-2.83;73.22;102350.09;5055142;28;20035;-75
2022/03/01 03:59:07;;;;;;;80.63;37.60;;;;;;;-2.87;73.25;102349.16;5074122;28;20024;-75
2022/03/01 04:01:34;;;;;;;85.43;37.28;;;;;;;-2.84;72.99;102342.06;5042709;28;20397;-74
2022/03/01 04:04:02;;;;;;;82.25;37.67;;;;;;;-2.89;73.53;102337.50;5059109;28;20473;-74
2022/03/01 04:06:28;;;;;;;79.35;34.95;;;;;;;-2.92;74.26;102338.19;5058917;28;20064;-73
2022/03/01 04:08:54;;;;;;;79.88;34.33;;;;;;;-2.95;74.15;102324.91;5059157;28;20031;-74
2022/03/01 04:11:22;;;;;;;79.13;36.75;;;;;;;-2.87;74.46;102331.59;5042051;28;20036;-74
2022/03/01 04:13:48;;;;;;;75.00;34.75;;;;;;;-2.81;74.02;102341.41;5058877;28;20109;-74
2022/03/01 04:16:15;;;;;;;78.72;31.85;;;;;;;-2.80;74.48;102315.16;5058800;28;20020;-75
2022/03/01 04:18:40;;;;;;;74.65;34.60;;;;;;;-2.77;74.25;102318.09;5058601;28;20031;-75
2022/03/01 04:21:08;;;;;;;71.78;32.80;;;;;;;-2.68;74.51;102310.47;5058883;28;20037;-74
2022/03/01 04:23:37;;;;;;;73.47;32.20;;;;;;;-2.63;73.95;102324.22;5059232;28;20037;-74
2022/03/01 04:26:18;;;;;;;66.63;32.70;;;;;;;-2.64;74.01;102321.75;5042333;28;20036;-75
2022/03/01 04:28:44;;;;;;;74.65;33.47;;;;;;;-2.65;74.01;102318.16;5058853;28;20016;-73
2022/03/01 04:31:11;;;;;;;63.90;31.02;;;;;;;-2.65;73.91;102312.56;5042234;28;20028;-73
2022/03/01 04:33:37;;;;;;;61.40;29.55;;;;;;;-2.66;73.60;102305.34;5042196;28;20023;-73
2022/03/01 04:36:04;;;;;;;69.53;31.48;;;;;;;-2.58;72.96;102316.81;5041886;28;20050;-73
2022/03/01 04:38:32;;;;;;;68.45;31.65;;;;;;;-2.62;73.31;102311.91;5076800;28;20032;-74
2022/03/01 04:40:59;;;;;;;70.43;32.88;;;;;;;-2.73;73.10;102291.16;5058608;28;20486;-74
2022/03/01 04:43:26;;;;;;;74.53;35.03;;;;;;;-2.69;73.86;102320.00;5076390;28;20028;-74
2022/03/01 04:45:52;;;;;;;66.13;32.70;;;;;;;-2.76;73.56;102308.53;5040851;28;20028;-74
2022/03/01 04:48:18;;;;;;;63.00;32.10;;;;;;;-2.83;73.82;102302.72;5077280;28;20020;-74
2022/03/01 04:50:44;;;;;;;64.97;34.38;;;;;;;-2.83;74.47;102299.09;5051644;28;20039;-74
2022/03/01 04:53:11;;;;;;;69.47;34.00;;;;;;;-2.83;74.63;102299.09;5038485;28;20056;-75
2022/03/01 04:55:40;;;;;;;55.47;31.50;;;;;;;-2.86;74.31;102300.59;5038526;28;20413;-74
2022/03/01 04:58:07;;;;;;;61.83;31.48;;;;;;;-2.94;74.29;102298.69;5038640;28;20028;-74
2022/03/01 05:00:33;;;;;;;63.28;31.35;;;;;;;-2.98;75.33;102297.72;5054434;28;20029;-74
2022/03/01 05:03:00;;;;;;;67.35;32.60;;;;;;;-3.01;74.92;102294.81;5039022;28;20252;-74
2022/03/01 05:05:26;;;;;;;64.47;31.45;;;;;;;-3.08;75.15;102287.78;5056878;28;20031;-74
2022/03/01 05:07:52;;;;;;;63.15;32.92;;;;;;;-3.05;74.74;102292.69;5054362;28;20052;-75
2022/03/01 05:10:19;;;;;;;62.55;30.27;;;;;;;-3.03;75.13;102297.09;5054680;28;20025;-74
2022/03/01 05:13:01;;;;;;;68.38;31.45;;;;;;;-3.07;75.20;102289.44;5037843;28;20028;-74
2022/03/01 05:15:29;;;;;;;65.20;30.83;;;;;;;-3.11;75.48;102284.88;5054923;28;20020;-75
2022/03/01 05:17:55;;;;;;;67.80;30.83;;;;;;;-3.12;75.48;102288.81;5054858;28;20024;-75
2022/03/01 05:20:25;;;;;;;65.53;31.20;;;;;;;-3.15;75.27;102286.69;5054304;28;20041;-74
2022/03/01 05:22:53;;;;;;;65.65;32.83;;;;;;;-3.14;75.61;102296.69;5038398;28;20032;-74
2022/03/01 05:25:21;;;;;;;65.78;32.22;;;;;;;-3.16;75.28;102288.66;5056071;28;20079;-74
2022/03/01 05:27:49;;;;;;;69.25;34.78;;;;;;;-3.15;75.47;102281.94;5022035;28;20033;-73
2022/03/01 05:30:18;;;;;;;73.90;34.50;;;;;;;-3.11;75.60;102287.66;5038788;28;20028;-75
2022/03/01 05:32:47;;;;;;;69.65;33.55;;;;;;;-3.10;75.93;102283.69;5055719;28;20035;-74
2022/03/01 05:35:17;;;;;;;72.30;33.70;;;;;;;-3.08;76.16;102281.41;5038884;28;20086;-75
2022/03/01 05:37:49;;;;;;;90.22;35.25;;;;;;;-3.00;75.82;102288.88;5055568;28;20100;-73
2022/03/01 05:40:17;;;;;;;107.05;40.38;;;;;;;-2.89;76.12;102286.53;5056060;28;20036;-74
2022/03/01 05:42:43;;;;;;;116.78;48.42;;;;;;;-2.85;74.83;102273.53;5054325;28;20379;-73
2022/03/01 05:45:12;;;;;;;117.43;47.08;;;;;;;-2.70;74.37;102273.75;5056825;28;20413;-73
2022/03/01 05:47:41;;;;;;;111.78;47.53;;;;;;;-2.48;74.38;102289.31;5054935;28;20031;-73
2022/03/01 05:50:09;;;;;;;113.60;44.95;;;;;;;-2.41;74.22;102280.38;5037802;28;20053;-73
2022/03/01 05:52:36;;;;;;;112.78;47.13;;;;;;;-2.29;74.09;102297.19;5054319;28;20028;-75
2022/03/01 05:55:17;;;;;;;109.43;43.38;;;;;;;-2.21;73.89;102294.31;5037803;28;20028;-74
2022/03/01 05:57:43;;;;;;;104.72;43.38;;;;;;;-2.10;73.68;102293.88;5054520;28;20059;-76
2022/03/01 06:00:15;;;;;;;112.13;40.95;;;;;;;-2.04;73.17;102298.09;5056530;28;20029;-75
2022/03/01 06:02:42;;;;;;;88.60;38.53;;;;;;;-1.95;72.92;102301.59;5021322;28;20029;-76
2022/03/01 06:05:09;;;;;;;92.45;39.65;;;;;;;-1.48;72.94;102302.84;5037013;28;20061;-78
2022/03/01 06:07:37;;;;;;;87.18;36.95;;;;;;;-1.14;70.77;102306.38;5035804;28;20041;-74
2022/03/01 06:10:07;;;;;;;69.03;34.45;;;;;;;-1.11;69.96;102305.66;5053570;28;20396;-77
2022/03/01 06:12:33;;;;;;;83.82;39.03;;;;;;;-1.23;69.94;102309.25;5054176;28;20075;-75
2022/03/01 06:15:00;;;;;;;79.63;35.85;;;;;;;-1.36;70.36;102308.44;5020905;28;20029;-77
2022/03/01 06:17:28;;;;;;;81.43;35.53;;;;;;;-1.44;70.43;102308.56;5055159;28;20466;-74
2022/03/01 06:19:54;;;;;;;85.32;36.60;;;;;;;-1.62;70.61;102293.97;5054568;28;20044;-75
2022/03/01 06:22:20;;;;;;;76.35;37.47;;;;;;;-1.54;70.89;102311.81;5054271;28;20032;-74
2022/03/01 06:24:47;;;;;;;71.50;35.97;;;;;;;-1.53;71.01;102314.25;5036159;28;20041;-73
2022/03/01 06:27:14;;;;;;;71.38;35.83;;;;;;;-1.53;70.86;102313.44;5053977;28;20100;-73
2022/03/01 06:29:41;;;;;;;72.35;35.28;;;;;;;-1.54;70.90;102304.25;5036260;28;20024;-74
2022/03/01 06:32:09;;;;;;;73.78;34.45;;;;;;;-1.49;70.94;102314.38;5053881;28;20021;-73
2022/03/01 06:34:34;;;;;;;72.70;34.33;;;;;;;-1.45;70.94;102307.75;5049167;28;20395;-72
2022/03/01 06:37:00;;;;;;;70.60;33.83;;;;;;;-1.40;71.00;102306.69;5053018;28;20020;-74
2022/03/01 06:39:26;;;;;;;79.93;35.97;;;;;;;-1.38;70.75;102305.16;5036465;28;20120;-72
2022/03/01 06:41:53;;;;;;;76.60;35.72;;;;;;;-1.32;71.19;102303.78;5052955;28;20021;-74
2022/03/01 06:44:21;;;;;;;68.18;34.03;;;;;;;-1.22;70.88;102299.72;5053802;28;20466;-76
2022/03/01 06:46:46;;;;;;;95.25;36.88;;;;;;;-1.11;70.79;102291.66;5052539;28;20504;-74
2022/03/01 06:49:15;;;;;;;91.90;37.17;;;;;;;-0.98;70.32;102302.50;5051485;28;20096;-74
2022/03/01 06:51:41;;;;;;;80.75;34.72;;;;;;;-0.89;70.60;102294.78;5055203;28;20465;-75
2022/03/01 06:54:06;;;;;;;76.22;34.88;;;;;;;-0.81;70.16;102287.44;5055239;28;20107;-74
2022/03/01 06:56:31;;;;;;;77.05;35.83;;;;;;;-0.63;69.96;102296.34;5072224;28;20128;-74
2022/03/01 06:58:57;;;;;;;92.90;34.85;;;;;;;-0.54;69.42;102295.06;5038372;28;20160;-73
2022/03/01 07:01:22;;;;;;;76.97;34.58;;;;;;;-0.42;69.42;102291.41;5038653;28;20048;-75
2022/03/01 07:03:48;;;;;;;85.10;37.10;;;;;;;-0.33;69.01;102283.66;5073372;28;20022;-75
2022/03/01 07:06:13;;;;;;;292.23;59.70;;;;;;;-0.26;68.84;102277.47;5022498;28;20111;-75
2022/03/01 07:08:40;;;;;;;115.95;38.97;;;;;;;-0.24;68.76;102277.91;5073571;28;20441;-74
2022/03/01 07:11:07;;;;;;;74.25;31.92;;;;;;;-0.14;68.58;102271.81;5073781;28;20377;-74
2022/03/01 07:13:38;;;;;;;72.90;33.60;;;;;;;0.06;67.78;102279.16;5058262;28;20025;-73
2022/03/01 07:16:05;;;;;;;71.32;31.25;;;;;;;0.14;68.08;102285.78;5073689;28;20052;-74
2022/03/01 07:18:32;;;;;;;60.70;28.20;;;;;;;0.25;67.64;102284.06;5055905;28;20378;-72
2022/03/01 07:21:01;;;;;;;65.35;30.55;;;;;;;0.35;67.43;102281.53;5073662;28;20024;-75
2022/03/01 07:23:27;;;;;;;90.13;31.73;;;;;;;0.48;66.44;102281.47;5053587;28;20033;-73
2022/03/01 07:25:53;;;;;;;75.20;31.67;;;;;;;0.60;66.53;102279.38;5074022;28;20029;-74
2022/03/01 07:28:18;;;;;;;59.53;27.55;;;;;;;0.69;66.43;102268.78;5073437;28;20023;-74
2022/03/01 07:30:44;;;;;;;74.22;29.73;;;;;;;3.28;65.21;102271.81;5073623;28;20458;-76
2022/03/01 07:33:10;;;;;;;55.70;25.92;;;;;;;8.45;52.20;102256.72;5054025;28;20027;-75
2022/03/01 07:35:37;;;;;;;55.13;27.50;;;;;;;12.94;40.54;102230.56;5031739;28;20035;-73
2022/03/01 07:38:02;;;;;;;58.25;27.30;;;;;;;15.75;34.42;102226.91;5066608;28;20043;-77
2022/03/01 07:40:28;;;;;;;59.13;28.15;;;;;;;17.38;30.58;102213.59;5059214;28;20036;-77
2022/03/01 07:43:01;;;;;;;56.58;26.70;;;;;;;19.51;25.42;102215.50;5019054;28;20028;-77
2022/03/01 07:45:35;;;;;;;59.58;29.52;;;;;;;20.81;24.45;102220.94;5021428;28;20065;-82
2022/03/01 07:48:02;;;;;;;54.50;29.15;;;;;;;21.63;23.44;102219.66;5020369;28;20021;-77
2022/03/01 07:50:31;;;;;;;60.45;29.27;;;;;;;19.75;23.68;102213.34;5036512;28;20037;-78
2022/03/01 07:52:57;;;;;;;53.30;28.83;;;;;;;16.64;27.96;102229.97;5053800;28;20017;-73
2022/03/01 07:55:24;;;;;;;61.70;33.20;;;;;;;14.05;31.38;102237.66;5019072;28;20032;-79
2022/03/01 07:58:09;;;;;;;55.30;31.90;;;;;;;16.55;27.44;102235.66;5058047;28;20411;-78
2022/03/01 08:00:37;;;;;;;61.55;32.13;;;;;;;18.74;26.14;102224.84;5055074;28;20037;-80
2022/03/01 08:03:04;;;;;;;60.63;27.88;;;;;;;20.27;24.00;102238.50;5074562;28;20036;-78
2022/03/01 08:05:30;;;;;;;60.80;28.90;;;;;;;20.60;23.34;102228.78;5078399;28;20056;-79
2022/03/01 08:07:57;;;;;;;60.05;30.67;;;;;;;20.52;23.22;102227.63;5060688;28;20024;-77
2022/03/01 08:10:23;;;;;;;52.17;30.83;;;;;;;20.58;23.38;102229.28;5057906;28;20107;-78
2022/03/01 08:12:50;;;;;;;73.32;34.70;;;;;;;20.11;23.42;102232.41;5073677;28;20025;-80
2022/03/01 08:15:15;;;;;;;65.03;32.90;;;;;;;19.19;24.00;102234.53;5073173;28;20020;-79
2022/03/01 08:17:48;;;;;;;63.78;34.45;;;;;;;18.09;23.60;102229.25;5072464;28;20480;-78
2022/03/01 08:20:13;;;;;;;62.42;33.58;;;;;;;17.27;25.86;102243.69;5035959;28;20041;-78
2022/03/01 08:22:40;;;;;;;71.95;33.22;;;;;;;16.77;27.23;102238.50;5069403;28;20024;-77
2022/03/01 08:25:07;;;;;;;67.78;33.42;;;;;;;16.34;27.58;102237.31;5069333;28;20055;-76
2022/03/01 08:27:32;;;;;;;61.28;31.60;;;;;;;16.18;27.97;102231.81;5070156;28;20020;-78
2022/03/01 08:29:58;;;;;;;57.60;30.40;;;;;;;15.73;28.01;102235.22;5072931;28;20023;-78
2022/03/01 08:32:25;;;;;;;54.72;27.80;;;;;;;15.51;27.72;102232.34;5084720;28;20108;-78
2022/03/01 08:34:55;;;;;;;61.92;28.48;;;;;;;14.92;29.28;102226.66;5074089;28;20059;-79
2022/03/01 08:37:20;;;;;;;74.22;29.25;;;;;;;14.69;29.66;102243.00;5072709;28;20066;-76
2022/03/01 08:39:47;;;;;;;60.47;28.20;;;;;;;14.56;30.35;102230.72;5073378;28;20016;-77
2022/03/01 08:42:14;;;;;;;59.45;27.92;;;;;;;14.48;30.73;102223.59;5071369;28;20078;-75
2022/03/01 08:44:40;;;;;;;47.03;26.23;;;;;;;14.50;30.59;102221.09;5075172;28;20020;-73
2022/03/01 08:47:05;;;;;;;44.20;26.30;;;;;;;14.32;31.66;102217.16;5074663;28;20074;-72
2022/03/01 08:49:32;;;;;;;97.90;32.63;;;;;;;14.36;30.62;102214.97;5074654;28;20019;-75
2022/03/01 08:52:00;;;;;;;67.55;27.95;;;;;;;14.31;31.08;102216.34;5076116;28;20470;-75
2022/03/01 08:54:26;;;;;;;54.45;27.52;;;;;;;14.27;30.57;102235.72;5074865;28;20535;-75
2022/03/01 08:56:52;;;;;;;45.42;26.10;;;;;;;13.84;31.15;102224.78;5077394;28;20377;-75
2022/03/01 08:59:18;;;;;;;54.53;27.10;;;;;;;13.56;31.65;102229.28;5076827;28;20016;-76
2022/03/01 09:01:44;;;;;;;46.63;26.58;;;;;;;13.49;32.29;102220.91;5059080;28;20025;-73
2022/03/01 09:04:11;;;;;;;45.60;27.42;;;;;;;13.31;32.86;102212.00;5077671;28;20035;-75
2022/03/01 09:06:37;;;;;;;49.63;25.85;;;;;;;13.23;33.29;102214.25;5059863;28;20504;-73
2022/03/01 09:09:03;;;;;;;48.20;27.40;;;;;;;13.12;33.21;102205.19;5077919;28;20489;-74
2022/03/01 09:11:30;;;;;;;45.17;25.77;;;;;;;12.92;33.68;102199.56;5076498;28;20036;-74
2022/03/01 09:13:57;;;;;;;46.83;26.88;;;;;;;12.71;33.86;102213.59;5076747;28;20376;-76
2022/03/01 09:16:22;;;;;;;41.00;25.33;;;;;;;12.28;33.32;102216.72;5076735;28;20030;-74
2022/03/01 09:18:49;;;;;;;47.75;26.05;;;;;;;11.75;34.60;102209.31;5058428;28;20111;-74
2022/03/01 09:21:14;;;;;;;45.25;26.20;;;;;;;11.14;35.46;102206.88;5062749;28;20086;-73
2022/03/01 09:23:41;;;;;;;44.38;25.40;;;;;;;10.72;36.23;102205.59;5056556;28;20045;-72
2022/03/01 09:26:07;;;;;;;47.75;27.13;;;;;;;10.33;37.40;102192.00;5038777;28;20021;-73
2022/03/01 09:28:34;;;;;;;43.03;25.70;;;;;;;10.13;37.41;102202.44;5056143;28;20424;-78
2022/03/01 09:31:00;;;;;;;41.47;23.98;;;;;;;10.18;36.84;102213.38;5056238;28;20049;-77
2022/03/01 09:33:25;;;;;;;44.17;25.58;;;;;;;10.00;37.30;102212.81;5056120;28;20021;-75
2022/03/01 09:35:51;;;;;;;41.33;23.25;;;;;;;9.90;38.00;102200.34;5055676;28;20111;-73
2022/03/01 09:38:16;;;;;;;43.58;23.15;;;;;;;9.75;37.61;102190.41;5039988;28;20098;-77
2022/03/01 09:40:50;;;;;;;51.47;23.15;;;;;;;9.75;37.85;102187.56;5069548;28;20441;-78
2022/03/01 09:43:17;;;;;;;37.85;22.92;;;;;;;9.77;38.14;102193.59;5045457;28;20036;-77
2022/03/01 09:45:43;;;;;;;46.38;24.13;;;;;;;9.79;38.30;102191.16;5061324;28;20025;-73
2022/03/01 09:48:10;;;;;;;44.90;23.13;;;;;;;9.82;38.06;102190.28;5044032;28;20112;-75
2022/03/01 09:50:35;;;;;;;40.92;23.83;;;;;;;9.89;39.26;102187.34;5059093;28;20042;-75
2022/03/01 09:53:02;;;;;;;44.97;24.65;;;;;;;10.03;38.56;102195.69;5041403;28;20035;-75
2022/03/01 09:55:29;;;;;;;42.78;23.25;;;;;;;10.16;38.09;102190.25;5040737;28;20024;-73
2022/03/01 09:57:56;;;;;;;42.55;23.58;;;;;;;10.25;38.69;102191.31;5040158;28;20028;-75
2022/03/01 10:00:22;;;;;;;60.05;24.45;;;;;;;10.22;38.89;102197.84;5075383;28;20021;-73
2022/03/01 10:02:54;;;;;;;55.50;25.77;;;;;;;10.10;38.10;102169.97;5075440;28;20036;-81
2022/03/01 10:05:34;;;;;;;56.20;22.75;;;;;;;10.12;37.70;102183.75;5057411;28;20467;-79
2022/03/01 10:08:20;;;;;;;39.72;20.10;;;;;;;10.13;37.08;102185.38;5041224;28;20094;-77
2022/03/01 10:10:52;;;;;;;32.60;18.33;;;;;;;10.18;38.33;102168.63;5056894;28;20055;-78
2022/03/01 10:13:22;;;;;;;;;;;;;;;10.25;38.37;102179.94;5057920;28;20032;-77
2022/03/01 10:15:51;;;;;;;46.97;19.77;;;;;;;10.24;38.02;102174.66;5075484;28;19915;-75
2022/03/01 10:18:17;;;;;;;38.53;18.73;;;;;;;10.20;37.67;102169.03;5075177;28;20025;-77
2022/03/01 10:20:45;;;;;;;34.00;17.08;;;;;;;10.30;37.59;102173.75;5055913;28;20040;-73
2022/03/01 10:23:22;;;;;;;26.52;14.60;;;;;;;10.34;37.99;102157.41;5072637;28;20032;-73
2022/03/01 10:25:47;;;;;;;25.27;13.98;;;;;;;10.35;36.94;102173.25;5057268;28;20025;-69
2022/03/01 10:28:14;;;;;;;23.58;12.77;;;;;;;10.15;37.25;102157.28;5074623;28;20032;-72
2022/03/01 10:30:39;;;;;;;21.00;13.70;;;;;;;10.08;38.49;102158.19;5056966;28;20100;-73
2022/03/01 10:33:15;;;;;;;18.33;11.38;;;;;;;10.11;37.32;102145.94;5074867;28;20032;-71
2022/03/01 10:35:42;;;;;;;27.20;13.73;;;;;;;10.01;36.95;102146.94;5039914;28;20028;-73
2022/03/01 10:38:11;;;;;;;28.15;15.18;;;;;;;9.72;38.18;102146.50;5056996;28;20377;-72
2022/03/01 10:40:39;;;;;;;30.52;14.70;;;;;;;9.56;38.10;102145.53;5074109;28;20050;-73
2022/03/01 10:43:13;;;;;;;22.80;13.00;;;;;;;9.57;37.99;102133.72;5039977;28;20393;-74
2022/03/01 10:45:47;;;;;;;24.98;14.27;;;;;;;9.51;39.21;102133.41;5039588;28;20036;-73
2022/03/01 10:48:42;;;;;;;22.92;14.63;;;;;;;9.39;39.39;102130.31;5074114;28;20024;-74
2022/03/01 10:51:09;;;;;;;33.90;16.50;;;;;;;9.12;38.52;102123.78;5052739;28;20146;-71
2022/03/01 10:53:40;;;;;;;27.95;15.50;;;;;;;9.08;39.67;102118.91;5052919;28;20036;-73
2022/03/01 10:56:33;;;;;;;32.28;17.25;;;;;;;8.81;38.55;102106.66;5052865;28;20025;-74
2022/03/01 10:58:58;;;;;;;30.23;17.00;;;;;;;8.64;38.93;102116.16;5044402;28;20061;-73
2022/03/01 11:01:26;;;;;;;24.88;15.82;;;;;;;8.49;40.02;102115.50;5033023;28;20064;-72
2022/03/01 11:03:55;;;;;;;30.20;15.77;;;;;;;8.51;40.64;102103.72;5034669;28;20025;-72
2022/03/01 11:06:21;;;;;;;28.77;15.25;;;;;;;8.76;40.38;102104.28;5034648;28;20030;-73
2022/03/01 11:08:47;;;;;;;28.58;15.93;;;;;;;8.58;40.29;102100.84;5034325;28;20055;-72
2022/03/01 11:11:12;;;;;;;29.60;16.95;;;;;;;8.47;40.81;102094.44;5034778;28;20436;-74
2022/03/01 11:13:45;;;;;;;28.73;13.23;;;;;;;8.53;40.77;102096.41;5041855;28;20024;-72